Latest Weather Observations for Browse Island

IDW60801

Issued at 1:39 am WST Monday 6 July 2020 (issued every 10 minutes, with the page automatically refreshed every 10 minutes)

About weather observations | Map of weather stations | Latest weather observations for WA | Other Formats
Station Details ID: 200784 Name: BROWSE ISLAND Lat: -14.11 Lon: 123.55 Height: 3.7 m
Data from the previous 72 hours. | See also: Recent months at Browse Island
Date/Time
WST
Temp
°C
App
Temp
°C
Dew
Point
°C
Rel
Hum
%
Delta-T
°C
Wind Press
QNH
hPa
Press
MSL
hPa
Rain since
9am
mm
Dir  Spd
km/h
Gust
km/h
Spd
kts
Gust
kts
06/01:30am 27.0 - - - - E 30 35 16 19 1014.0 - -
06/01:25am 26.6 - - - - ENE 30 35 16 19 1014.7 1014.6 -
06/01:00am 26.5 - - - - ENE 28 - 15 - 1014.0 1014.8 -
06/12:30am 26.0 - - - - ENE 24 - 13 - 1015.0 - -
06/12:25am 26.3 - - - - ENE 24 - 13 - - 1015.1 -
06/12:00am 26.5 - - - - E 24 - 13 - 1015.0 1015.1 -
 
Date/Time
WST
Temp
°C
App
Temp
°C
Dew
Point
°C
Rel
Hum
%
Delta-T
°C
Wind Press
QNH
hPa
Press
MSL
hPa
Rain since
9am
mm
Dir  Spd
km/h
Gust
km/h
Spd
kts
Gust
kts
05/11:30pm 26.0 - - - - ENE 24 - 13 - 1015.0 - -
05/11:25pm 26.3 - - - - ENE 24 - 13 - - 1015.0 -
05/11:00pm 26.4 - - - - ENE 24 28 13 15 1015.2 1015.1 -
05/10:30pm 26.6 - - - - ENE 22 28 12 15 1015.3 1015.2 -
05/10:25pm 26.6 - - - - ENE 22 - 12 - - 1015.1 -
05/10:00pm 26.4 - - - - ENE 19 - 10 - 1015.0 1015.1 -
05/09:30pm 26.0 - - - - ENE 20 - 11 - 1015.0 - -
05/09:25pm 26.4 - - - - ENE 20 - 11 - - 1014.9 -
05/09:00pm 26.5 - - - - ENE 24 - 13 - 1015.0 1014.9 -
05/08:30pm 27.0 - - - - ENE 24 - 13 - 1014.0 - -
05/08:25pm 26.6 - - - - ENE 26 - 14 - - 1014.7 -
05/08:00pm 26.3 - - - - ENE 26 - 14 - 1014.0 1014.4 -
05/07:30pm 26.0 - - - - ENE 28 - 15 - 1014.0 - -
05/07:25pm 26.3 - - - - ENE 28 - 15 - - 1014.3 -
05/07:00pm 26.2 - - - - ENE 30 - 16 - 1014.0 1014.1 -
05/06:30pm 26.0 - - - - ENE 35 - 19 - 1014.0 - -
05/06:25pm 26.0 - - - - ENE 33 - 18 - - 1013.8 -
05/06:00pm 26.0 - - - - ENE 32 - 17 - 1013.0 1013.6 -
05/05:30pm 26.0 - - - - ENE 33 - 18 - 1013.0 - -
05/05:25pm 26.1 - - - - ENE 33 - 18 - - 1013.4 -
05/05:00pm 26.0 - - - - ENE 32 - 17 - 1013.0 1013.2 -
05/04:30pm 26.0 - - - - ENE 33 - 18 - 1013.0 - -
05/04:25pm 26.2 - - - - ENE 33 - 18 - - 1013.0 -
05/04:00pm 26.2 - - - - ENE 35 - 19 - 1012.0 1012.8 -
05/03:30pm 26.0 - - - - ENE 33 - 18 - 1012.0 - -
05/03:25pm 26.3 - - - - ENE 33 - 18 - - 1012.6 -
05/03:00pm 26.3 - - - - ENE 33 - 18 - 1012.0 1012.7 -
05/02:30pm 27.0 - - - - ENE 35 - 19 - 1013.0 - -
05/02:25pm 26.5 - - - - ENE 33 - 18 - - 1012.9 -
05/02:00pm 26.6 - - - - ENE 37 - 20 - 1013.0 1013.0 -
05/01:30pm 27.0 - - - - E 37 - 20 - 1013.0 - -
05/01:25pm 26.9 - - - - E 37 - 20 - - 1013.1 -
05/01:00pm 26.9 - - - - E 39 52 21 28 1013.5 1013.4 -
05/12:30pm 27.0 - - - - E 37 - 20 - 1014.0 - -
05/12:25pm 27.0 - - - - E 37 - 20 - - 1014.0 -
05/12:00pm 27.4 - - - - E 37 - 20 - 1014.0 1014.3 -
05/11:30am 27.0 - - - - E 39 - 21 - 1014.0 - -
05/11:25am 27.4 - - - - E 39 - 21 - - 1014.7 -
05/11:00am 27.7 - - - - E 37 - 20 - 1015.0 1015.0 -
05/10:30am 28.0 - - - - E 35 - 19 - 1015.0 - -
05/10:25am 27.9 - - - - E 37 - 20 - - 1015.6 -
05/10:00am 27.8 - - - - E 39 - 21 - 1015.0 1015.8 -
05/09:30am 27.0 - - - - E 35 - 19 - 1016.0 - -
05/09:25am 27.4 - - - - E 37 - 20 - - 1016.0 -
05/09:00am 27.3 - - - - E 35 - 19 - 1016.0 1015.9 -
05/08:30am 27.0 - - - - E 35 - 19 - 1016.0 - -
05/08:25am 27.2 - - - - E 37 - 20 - - 1015.9 -
05/08:00am 27.1 - - - - E 39 - 21 - 1015.0 1015.6 -
05/07:30am 27.0 - - - - E 39 - 21 - 1015.0 - -
05/07:25am 27.4 - - - - E 37 - 20 - - 1015.3 -
05/07:00am 27.5 - - - - E 39 - 21 - 1015.0 1015.2 -
05/06:30am 28.0 - - - - ESE 37 - 20 - 1015.0 - -
05/06:25am 27.5 - - - - ESE 35 - 19 - - 1014.9 -
05/06:00am 27.5 - - - - ESE 35 - 19 - 1014.0 1014.8 -
05/05:30am 28.0 - - - - E 35 - 19 - 1014.0 - -
05/05:25am 27.5 - - - - E 33 - 18 - - 1014.5 -
05/05:00am 27.5 - - - - E 33 - 18 - 1014.0 1014.4 -
05/04:30am 28.0 - - - - E 33 - 18 - 1014.0 - -
05/04:25am 27.6 - - - - E 33 - 18 - - 1014.2 -
05/04:00am 27.5 - - - - E 33 - 18 - 1014.0 1014.1 -
05/03:30am 27.0 - - - - E 32 - 17 - 1014.0 - -
05/03:25am 27.4 - - - - E 32 - 17 - - 1014.1 -
05/03:00am 27.5 - - - - E 35 - 19 - 1014.0 1014.1 -
05/02:30am 27.0 - - - - ENE 33 - 18 - 1014.0 - -
05/02:25am 27.4 - - - - ENE 33 - 18 - - 1014.1 -
05/02:00am 27.2 - - - - ENE 33 - 18 - 1014.0 1014.3 -
05/01:30am 27.0 - - - - ENE 32 - 17 - 1014.0 - -
05/01:25am 27.1 - - - - ENE 33 - 18 - - 1014.7 -
05/01:00am 26.9 - - - - ENE 33 - 18 - 1014.0 1014.8 -
05/12:30am 27.0 - - - - ENE 30 - 16 - 1015.0 - -
05/12:25am 26.9 - - - - ENE 30 - 16 - - 1015.1 -
05/12:00am 27.0 - - - - ENE 32 - 17 - 1015.0 1015.3 -
 
Date/Time
WST
Temp
°C
App
Temp
°C
Dew
Point
°C
Rel
Hum
%
Delta-T
°C
Wind Press
QNH
hPa
Press
MSL
hPa
Rain since
9am
mm
Dir  Spd
km/h
Gust
km/h
Spd
kts
Gust
kts
04/11:30pm 27.0 - - - - ENE 33 - 18 - 1015.0 - -
04/11:25pm 26.7 - - - - ENE 33 - 18 - - 1015.5 -
04/11:00pm 27.0 - - - - ENE 32 - 17 - 1015.0 1015.7 -
04/10:30pm 27.0 - - - - NE 33 - 18 - 1015.0 - -
04/10:25pm 26.9 - - - - NE 35 - 19 - - 1015.8 -
04/10:00pm 26.9 - - - - NE 30 - 16 - 1016.0 1015.9 -
04/09:30pm 27.0 - - - - NE 33 - 18 - 1016.0 - -
04/09:25pm 27.0 - - - - NE 33 - 18 - - 1016.0 -
04/09:00pm 27.0 - - - - NE 35 - 19 - 1016.0 1015.9 -
04/08:30pm 27.0 - - - - NE 35 - 19 - 1015.0 - -
04/08:25pm 26.9 - - - - NE 37 - 20 - - 1015.7 -
04/08:00pm 26.8 - - - - NE 35 - 19 - 1015.0 1015.4 -
04/07:30pm 27.0 - - - - NE 37 - 20 - 1015.0 - -
04/07:25pm 26.9 - - - - NE 35 - 19 - - 1015.1 -
04/07:00pm 26.9 - - - - NE 39 - 21 - 1015.0 1014.9 -
04/06:30pm 27.0 - - - - NE 39 - 21 - 1014.0 - -
04/06:25pm 27.2 - - - - NE 39 - 21 - - 1014.6 -
04/06:00pm 27.3 - - - - NE 39 - 21 - 1014.0 1014.2 -
04/05:30pm 27.0 - - - - ENE 43 - 23 - 1013.0 - -
04/05:25pm 27.4 - - - - ENE 43 - 23 - - 1013.9 -
04/05:00pm 27.6 - - - - ENE 41 - 22 - 1013.0 1013.5 -
04/04:30pm 28.0 - - - - ENE 39 - 21 - 1013.0 - -
04/04:25pm 27.9 - - - - ENE 37 - 20 - - 1013.3 -
04/04:00pm 28.0 - - - - ENE 41 - 22 - 1013.0 1013.0 -
04/03:30pm 28.0 - - - - ENE 41 - 22 - 1013.0 - -
04/03:25pm 28.1 - - - - ENE 39 - 21 - - 1012.9 -
04/03:00pm 28.0 - - - - ENE 35 - 19 - 1013.0 1013.1 -
04/02:30pm 28.0 - - - - ENE 39 - 21 - 1013.0 - -
04/02:25pm 28.3 - - - - ENE 37 - 20 - - 1013.1 -
04/02:00pm 28.5 - - - - ENE 39 - 21 - 1013.0 1013.1 -
04/01:30pm 28.0 - - - - ENE 35 - 19 - 1013.0 - -
04/01:25pm 28.5 - - - - ENE 35 - 19 - - 1013.4 -
04/01:00pm 28.3 - - - - ENE 33 - 18 - 1013.0 1013.8 -
04/12:30pm 29.0 - - - - E 39 - 21 - 1014.0 - -
04/12:25pm 28.2 - - - - E 39 - 21 - - 1014.1 -
04/12:00pm 28.4 - - - - E 39 - 21 - 1014.0 1014.7 -
04/11:30am 29.0 - - - - E 37 - 20 - 1015.0 - -
04/11:26am 28.8 - - - - E 37 - 20 - - 1015.1 -
04/11:00am 28.6 - - - - E 35 - 19 - 1015.0 1015.4 -
04/10:30am 28.0 - - - - E 30 - 16 - 1016.0 - -
04/10:25am 28.1 - - - - ESE 30 - 16 - - 1015.8 -
04/10:00am 28.1 - - - - ESE 28 - 15 - 1016.0 1015.9 -
04/09:30am 28.0 - - - - ESE 26 - 14 - 1016.0 - -
04/09:25am 27.9 - - - - ESE 24 - 13 - - 1016.2 -
04/09:00am 27.6 - - - - ESE 24 - 13 - 1016.0 1016.0 -
04/08:30am 27.0 - - - - ESE 22 - 12 - 1016.0 - -
04/08:25am 27.0 - - - - ESE 22 - 12 - - 1016.1 -
04/08:00am 27.1 - - - - ESE 24 - 13 - 1015.0 1015.8 -
04/07:30am 27.0 - - - - E 22 - 12 - 1015.0 - -
04/07:25am 27.1 - - - - E 20 - 11 - - 1015.5 -
04/07:00am 27.0 - - - - E 17 - 9 - 1015.0 1015.2 -
04/06:30am 27.0 - - - - E 15 - 8 - 1015.0 - -
04/06:25am 26.7 - - - - E 15 - 8 - - 1015.2 -
04/06:00am 26.7 - - - - E 17 - 9 - 1015.0 1015.0 -
04/05:30am 27.0 - - - - E 17 - 9 - 1014.0 - -
04/05:00am 26.5 - - - - E 17 - 9 - 1014.0 1014.6 -
04/04:30am 27.0 - - - - E 17 - 9 - 1014.0 - -
04/04:00am 26.7 - - - - E 15 - 8 - 1014.0 1014.7 -
04/03:30am 27.0 - - - - E 17 - 9 - 1014.0 - -
04/03:25am 26.8 - - - - E 15 - 8 - - 1014.6 -
04/03:00am 26.8 - - - - E 15 - 8 - 1014.0 1014.7 -
04/02:30am 27.0 - - - - E 15 - 8 - 1014.0 - -
04/02:25am 26.7 - - - - E 15 - 8 - - 1014.8 -
04/02:00am 26.8 - - - - E 17 - 9 - 1015.0 1015.0 -
04/01:30am 27.0 - - - - ENE 17 - 9 - 1015.0 - -
04/01:25am 26.9 - - - - ENE 17 - 9 - - 1015.4 -
04/01:00am 27.0 - - - - ENE 19 - 10 - 1015.0 1015.5 -
04/12:30am 27.0 - - - - ENE 22 - 12 - 1016.0 - -
04/12:25am 27.3 - - - - ENE 22 - 12 - - 1016.0 -
04/12:00am 27.5 - - - - ENE 22 - 12 - 1016.0 1016.0 -
 
Date/Time
WST
Temp
°C
App
Temp
°C
Dew
Point
°C
Rel
Hum
%
Delta-T
°C
Wind Press
QNH
hPa
Press
MSL
hPa
Rain since
9am
mm
Dir  Spd
km/h
Gust
km/h
Spd
kts
Gust
kts
03/11:30pm 27.3 - - - - ENE 20 24 11 13 1016.0 1015.9 -
03/11:25pm 27.4 - - - - ENE 20 - 11 - - 1015.9 -
03/11:00pm 27.5 - - - - NE 20 - 11 - 1016.0 1016.0 -
03/10:30pm 27.0 - - - - NE 17 - 9 - 1016.0 - -
03/10:25pm 27.2 - - - - NE 17 - 9 - - 1016.0 -
03/10:00pm 27.3 - - - - NE 15 - 8 - 1016.0 1016.1 -
03/09:30pm 27.0 - - - - NE 13 - 7 - 1016.0 - -
03/09:25pm 27.4 - - - - NE 13 - 7 - - 1016.0 -
03/09:00pm 27.4 - - - - NE 13 - 7 - 1016.0 1016.0 -
03/08:30pm 27.0 - - - - NE 11 - 6 - 1016.0 - -
03/08:25pm 27.3 - - - - NE 11 - 6 - - 1015.9 -
03/08:00pm 27.3 - - - - NE 11 - 6 - 1015.0 1015.7 -
03/07:30pm 27.0 - - - - E 11 - 6 - 1015.0 - -
03/07:25pm 27.2 - - - - E 11 - 6 - - 1015.7 -
03/07:00pm 27.2 - - - - E 11 - 6 - 1015.0 1015.5 -
03/06:30pm 27.0 - - - - E 11 - 6 - 1015.0 - -
03/06:25pm 27.1 - - - - E 11 - 6 - - 1015.0 -
03/06:00pm 27.2 - - - - E 11 - 6 - 1014.0 1014.7 -
03/05:30pm 27.0 - - - - ESE 13 - 7 - 1014.0 - -
03/05:25pm 27.3 - - - - ESE 13 - 7 - - 1014.4 -
03/05:00pm 27.5 - - - - ESE 13 - 7 - 1014.0 1014.2 -
03/04:30pm 28.0 - - - - E 13 - 7 - 1014.0 - -
03/04:25pm 28.1 - - - - E 15 - 8 - - 1013.8 -
03/04:00pm 28.0 - - - - ESE 13 - 7 - 1013.0 1013.5 -
03/03:30pm 28.0 - - - - ESE 15 - 8 - 1013.0 - -
03/03:25pm 28.5 - - - - ESE 15 - 8 - - 1013.4 -
03/03:00pm 27.8 - - - - ESE 15 - 8 - 1013.0 1013.3 -
03/02:30pm 28.0 - - - - ESE 15 - 8 - 1013.0 - -
03/02:25pm 27.9 - - - - ESE 15 - 8 - - 1013.5 -
03/02:00pm 28.6 - - - - ESE 15 - 8 - 1013.0 1013.6 -
03/01:30pm 29.0 - - - - SE 15 - 8 - 1013.0 - -
03/01:25pm 27.8 - - - - SE 15 - 8 - - 1013.8 -
03/01:00pm 28.2 - - - - SE 15 - 8 - 1014.0 1014.0 -
03/12:30pm 28.0 - - - - SSE 15 - 8 - 1014.0 - -
03/12:25pm 27.8 - - - - SE 15 - 8 - - 1014.3 -
03/12:00pm 27.6 - - - - SSE 15 - 8 - 1014.0 1014.5 -
03/11:30am 28.0 - - - - SSE 13 - 7 - 1014.0 - -
03/11:25am 27.9 - - - - SSE 13 - 7 - - 1014.7 -
03/11:00am 27.6 - - - - SSE 13 - 7 - 1015.0 1015.2 -
03/10:30am 28.0 - - - - SE 15 - 8 - 1015.0 - -
03/10:25am 27.9 - - - - SE 15 - 8 - - 1015.5 -
03/10:00am 27.9 - - - - SSE 13 - 7 - 1015.0 1015.6 -
03/09:30am 27.0 - - - - SSE 15 - 8 - 1015.0 - -
03/09:25am 27.2 - - - - SSE 15 - 8 - - 1015.7 -
03/09:00am 27.5 - - - - SSE 13 - 7 - 1015.0 1015.7 -
03/08:30am 27.0 - - - - SSE 13 - 7 - 1015.0 - -
03/08:00am 27.1 - - - - SSE 13 - 7 - 1015.0 1015.4 -
03/07:30am 27.0 - - - - S 9 - 5 - 1015.0 - -
03/07:00am 26.7 - - - - SSE 11 - 6 - 1015.0 1015.0 -
03/06:30am 27.0 - - - - SSE 9 - 5 - 1014.0 - -
03/06:00am 26.6 - - - - SSE 9 - 5 - 1014.0 1014.5 -
03/05:30am 27.0 - - - - SSE 9 - 5 - 1014.0 - -
03/05:00am 26.4 - - - - SSE 7 - 4 - 1014.0 1014.2 -
03/04:30am 27.0 - - - - SSE 7 - 4 - 1014.0 - -
03/04:00am 26.6 - - - - SE 9 - 5 - 1014.0 1014.1 -
03/03:30am 27.0 - - - - SE 9 - 5 - 1014.0 - -
03/03:25am 26.5 - - - - SE 9 - 5 - - 1013.8 -
03/03:00am 26.5 - - - - SE 11 - 6 - 1013.0 1013.8 -
03/02:30am 27.0 - - - - SE 11 - 6 - 1013.0 - -
03/02:25am 26.5 - - - - SE 11 - 6 - - 1013.8 -
03/02:00am 26.5 - - - - SE 13 - 7 - 1013.0 1013.8 -

Other formats

Comma delimited format used in spreadsheet applications
http://www.bom.gov.au/fwo/IDW60801/IDW60801.94103.axf

JavaScript Object Notation format (JSON) in row-major order
http://www.bom.gov.au/fwo/IDW60801/IDW60801.94103.json

Data quality

Most of these data are generated automatically and are frequently updated. Quality checks on data are not normally performed. It is possible for incorrect values to appear. Refer to information at About Latest Weather Observations and please check the disclaimer before using these data.